Time;durP1;ratioP1;P1;durP2;ratioP2;P2;SDS_P1;SDS_P2;PMS_P1;PMS_P2;Temp;Humidity;BMP_temperature;BMP_pressure;BME280_temperature;BME280_humidity;BME280_pressure;Samples;Min_cycle;Max_cycle;Signal;HPM_P1;HPM_P2
2021/06/24 00:00:55;;;;;;;6.70;5.43;;;16.80;99.90;;;;;;5049110;28;20435;-70
2021/06/24 00:03:24;;;;;;;8.57;4.80;;;16.80;99.90;;;;;;5049647;28;20579;-70
2021/06/24 00:05:51;;;;;;;5.80;4.80;;;16.80;99.90;;;;;;5050066;28;20451;-69
2021/06/24 00:08:20;;;;;;;6.20;4.37;;;16.70;99.90;;;;;;5049662;28;21163;-70
2021/06/24 00:10:48;;;;;;;5.80;4.70;;;16.80;99.90;;;;;;5049120;28;20535;-70
2021/06/24 00:13:15;;;;;;;5.10;4.37;;;16.70;99.90;;;;;;5050173;28;20510;-70
2021/06/24 00:15:43;;;;;;;7.60;5.50;;;16.80;99.90;;;;;;5052216;28;20891;-70
2021/06/24 00:18:10;;;;;;;7.63;5.10;;;16.70;99.90;;;;;;5053433;28;20559;-69
2021/06/24 00:20:38;;;;;;;5.80;5.20;;;16.70;99.90;;;;;;5053124;28;20451;-69
2021/06/24 00:23:06;;;;;;;6.43;5.53;;;16.70;99.90;;;;;;5053674;28;21027;-70
2021/06/24 00:25:35;;;;;;;7.93;5.97;;;16.70;99.90;;;;;;5053414;28;21150;-70
2021/06/24 00:28:02;;;;;;;6.83;5.23;;;16.70;99.90;;;;;;5053383;28;20578;-70
2021/06/24 00:30:29;;;;;;;6.40;5.70;;;16.70;99.90;;;;;;5053081;28;20440;-70
2021/06/24 00:32:56;;;;;;;5.63;4.30;;;16.70;99.90;;;;;;5053708;28;20873;-70
2021/06/24 00:35:23;;;;;;;6.20;5.23;;;16.70;99.90;;;;;;5053799;28;20543;-70
2021/06/24 00:37:50;;;;;;;9.27;6.10;;;16.70;99.90;;;;;;5052877;28;21048;-70
2021/06/24 00:40:17;;;;;;;5.97;5.00;;;16.70;99.90;;;;;;5052678;28;20450;-70
2021/06/24 00:42:46;;;;;;;14.97;6.23;;;16.70;99.90;;;;;;5053384;28;20838;-70
2021/06/24 00:45:14;;;;;;;8.20;6.30;;;16.70;99.90;;;;;;5053352;28;20455;-70
2021/06/24 00:47:42;;;;;;;59.73;13.80;;;16.60;99.90;;;;;;5052839;28;20464;-70
2021/06/24 00:50:11;;;;;;;10.70;6.30;;;16.70;99.90;;;;;;5052441;28;20530;-69
2021/06/24 00:52:39;;;;;;;6.00;4.93;;;16.70;99.90;;;;;;5052843;28;20443;-70
2021/06/24 00:55:07;;;;;;;6.27;5.37;;;16.70;99.90;;;;;;5053313;28;20454;-70
2021/06/24 00:57:34;;;;;;;6.53;4.80;;;16.70;99.90;;;;;;5052586;28;20468;-70
2021/06/24 01:00:04;;;;;;;7.23;4.57;;;16.80;99.90;;;;;;5052549;28;20558;-70
2021/06/24 01:02:32;;;;;;;6.53;4.57;;;16.70;99.90;;;;;;5053372;28;20487;-70
2021/06/24 01:04:59;;;;;;;5.83;5.23;;;16.60;99.90;;;;;;5052925;28;20483;-70
2021/06/24 01:07:25;;;;;;;6.43;5.33;;;16.60;99.90;;;;;;5052773;28;20504;-70
2021/06/24 01:09:53;;;;;;;11.00;5.67;;;16.60;99.90;;;;;;5052168;28;20531;-70
2021/06/24 01:12:21;;;;;;;7.27;5.60;;;16.60;99.90;;;;;;5052948;28;20546;-70
2021/06/24 01:14:49;;;;;;;7.40;6.33;;;16.60;99.90;;;;;;5052686;28;20538;-71
2021/06/24 01:17:18;;;;;;;7.07;5.23;;;16.60;99.90;;;;;;5052493;28;20562;-70
2021/06/24 01:19:45;;;;;;;5.70;5.00;;;16.50;99.90;;;;;;5051716;28;20451;-70
2021/06/24 01:22:12;;;;;;;5.77;5.10;;;16.60;99.90;;;;;;5052868;28;20443;-70
2021/06/24 01:24:41;;;;;;;21.03;7.93;;;16.50;99.90;;;;;;5052736;28;20514;-70
2021/06/24 01:27:08;;;;;;;17.73;8.30;;;16.60;99.90;;;;;;5050894;28;20474;-70
2021/06/24 01:29:35;;;;;;;33.70;10.83;;;16.60;99.90;;;;;;5051745;28;20886;-70
2021/06/24 01:32:03;;;;;;;8.70;6.77;;;16.60;99.90;;;;;;5052474;28;20476;-70
2021/06/24 01:34:30;;;;;;;8.67;6.20;;;16.60;99.90;;;;;;5052999;28;20450;-70
2021/06/24 01:36:57;;;;;;;10.93;7.53;;;16.60;99.90;;;;;;5051754;28;20938;-70
2021/06/24 01:39:24;;;;;;;9.77;7.47;;;16.60;99.90;;;;;;5051749;28;20539;-70
2021/06/24 01:41:56;;;;;;;7.40;6.60;;;16.60;99.90;;;;;;5052425;28;20526;-70
2021/06/24 01:44:32;;;;;;;10.37;7.37;;;16.60;99.90;;;;;;5052367;28;20486;-69
2021/06/24 01:46:59;;;;;;;8.00;7.20;;;16.50;99.90;;;;;;5051727;28;20542;-70
2021/06/24 01:49:26;;;;;;;8.23;6.73;;;16.50;99.90;;;;;;5051511;28;20448;-70
2021/06/24 01:51:53;;;;;;;9.17;7.70;;;16.50;99.90;;;;;;5051953;28;20452;-70
2021/06/24 01:54:20;;;;;;;14.50;8.40;;;16.50;99.90;;;;;;5052175;28;20472;-70
2021/06/24 01:56:47;;;;;;;10.30;7.67;;;16.50;99.90;;;;;;5051527;28;21008;-71
2021/06/24 01:59:15;;;;;;;10.13;7.30;;;16.60;99.90;;;;;;5051051;28;20558;-70
2021/06/24 02:01:43;;;;;;;11.10;7.80;;;16.60;99.90;;;;;;5051938;28;20478;-70
2021/06/24 02:04:10;;;;;;;9.63;8.10;;;16.60;99.90;;;;;;5051842;28;20498;-70
2021/06/24 02:06:37;;;;;;;9.63;7.60;;;16.60;99.90;;;;;;5051427;28;20547;-70
2021/06/24 02:09:05;;;;;;;11.97;7.93;;;16.60;99.90;;;;;;5051284;28;20486;-70
2021/06/24 02:11:32;;;;;;;10.70;8.50;;;16.60;99.90;;;;;;5051873;28;20443;-70
2021/06/24 02:13:59;;;;;;;12.40;7.77;;;16.70;99.90;;;;;;5051254;28;20463;-71
2021/06/24 02:16:28;;;;;;;10.40;7.60;;;16.60;99.90;;;;;;5051524;28;20899;-71
2021/06/24 02:18:55;;;;;;;7.77;7.00;;;16.70;99.90;;;;;;5052056;28;20495;-71
2021/06/24 02:21:22;;;;;;;9.90;7.20;;;16.70;99.90;;;;;;5052503;28;20476;-69
2021/06/24 02:23:49;;;;;;;8.67;7.00;;;16.70;99.90;;;;;;5052306;28;20483;-71
2021/06/24 02:26:15;;;;;;;8.20;7.10;;;16.70;99.90;;;;;;5050817;28;20483;-71
2021/06/24 02:28:42;;;;;;;8.90;7.70;;;16.70;99.90;;;;;;5051418;28;20506;-71
2021/06/24 02:31:09;;;;;;;10.40;8.00;;;16.60;99.90;;;;;;5050689;28;20548;-70
2021/06/24 02:33:38;;;;;;;14.70;9.20;;;16.60;99.90;;;;;;5051430;28;20539;-70
2021/06/24 02:36:06;;;;;;;9.17;8.20;;;16.60;99.90;;;;;;5050977;28;20539;-70
2021/06/24 02:38:33;;;;;;;10.23;8.23;;;16.60;99.90;;;;;;5051519;28;20575;-70
2021/06/24 02:40:59;;;;;;;9.07;7.60;;;16.60;99.90;;;;;;5050652;28;20451;-70
2021/06/24 02:43:26;;;;;;;9.13;6.93;;;16.50;99.90;;;;;;5051449;28;20566;-70
2021/06/24 02:45:53;;;;;;;10.33;7.20;;;16.50;99.90;;;;;;5051113;28;20538;-70
2021/06/24 02:48:20;;;;;;;11.17;7.07;;;16.40;99.90;;;;;;5051303;28;20496;-71
2021/06/24 02:50:49;;;;;;;9.20;6.40;;;16.40;99.90;;;;;;5050269;28;20808;-70
2021/06/24 02:53:15;;;;;;;10.87;6.80;;;16.30;99.90;;;;;;5051096;28;20472;-71
2021/06/24 02:55:43;;;;;;;22.43;8.87;;;16.30;99.90;;;;;;5050806;28;20886;-72
2021/06/24 02:58:10;;;;;;;66.73;14.87;;;16.40;99.90;;;;;;5050769;28;20476;-70
2021/06/24 03:00:37;;;;;;;9.87;7.60;;;16.30;99.90;;;;;;5049807;28;20458;-70
2021/06/24 03:03:04;;;;;;;8.63;7.10;;;16.40;99.90;;;;;;5050895;28;20923;-72
2021/06/24 03:05:31;;;;;;;9.27;7.93;;;16.30;99.90;;;;;;5050787;28;20444;-71
2021/06/24 03:07:59;;;;;;;12.83;8.57;;;16.40;99.90;;;;;;5050051;28;20513;-71
2021/06/24 03:10:26;;;;;;;26.53;9.87;;;16.40;99.90;;;;;;5049947;28;20436;-70
2021/06/24 03:12:53;;;;;;;15.40;9.73;;;16.40;99.90;;;;;;5050465;28;21255;-70
2021/06/24 03:15:20;;;;;;;10.20;7.20;;;16.30;99.90;;;;;;5050720;28;20520;-71
2021/06/24 03:17:48;;;;;;;8.13;6.57;;;16.30;99.90;;;;;;5049955;28;20559;-71
2021/06/24 03:20:16;;;;;;;8.40;6.77;;;16.30;99.90;;;;;;5049840;28;20443;-71
2021/06/24 03:22:43;;;;;;;9.67;6.80;;;16.30;99.90;;;;;;5050198;28;20443;-69
2021/06/24 03:25:15;;;;;;;11.23;6.50;;;16.20;99.90;;;;;;5050620;28;20488;-70
2021/06/24 03:27:42;;;;;;;6.27;5.60;;;16.20;99.90;;;;;;5050025;28;20460;-70
2021/06/24 03:30:12;;;;;;;8.40;5.80;;;16.10;99.90;;;;;;5049561;28;20902;-69
2021/06/24 03:32:39;;;;;;;13.00;7.50;;;16.10;99.90;;;;;;5050006;28;20558;-69
2021/06/24 03:35:08;;;;;;;8.33;7.07;;;16.00;99.90;;;;;;5050045;28;20496;-70
2021/06/24 03:37:34;;;;;;;11.53;7.00;;;16.00;99.90;;;;;;5049600;28;20558;-70
2021/06/24 03:40:01;;;;;;;8.70;7.10;;;16.00;99.90;;;;;;5049447;28;20452;-69
2021/06/24 03:42:29;;;;;;;9.57;8.17;;;16.00;99.90;;;;;;5050521;28;20555;-69
2021/06/24 03:44:56;;;;;;;8.10;7.30;;;16.00;99.90;;;;;;5049847;28;20486;-70
2021/06/24 03:47:23;;;;;;;10.50;8.10;;;16.10;99.90;;;;;;5049626;28;21076;-70
2021/06/24 03:49:50;;;;;;;11.03;7.83;;;16.00;99.90;;;;;;5048711;28;20462;-71
2021/06/24 03:52:17;;;;;;;14.93;9.27;;;16.00;99.90;;;;;;5050403;28;20450;-69
2021/06/24 03:54:44;;;;;;;16.53;8.90;;;16.10;99.90;;;;;;5050069;28;20547;-70
2021/06/24 03:57:10;;;;;;;11.40;9.70;;;16.20;99.90;;;;;;5049688;28;20555;-69
2021/06/24 03:59:39;;;;;;;15.43;10.00;;;16.30;99.90;;;;;;5048878;28;20462;-70
2021/06/24 04:02:06;;;;;;;13.70;8.57;;;16.40;99.90;;;;;;5049882;28;20474;-70
2021/06/24 04:04:33;;;;;;;11.50;8.70;;;16.40;99.90;;;;;;5049677;28;20567;-70
2021/06/24 04:07:00;;;;;;;12.80;10.17;;;16.50;99.90;;;;;;5049291;28;21044;-70
2021/06/24 04:09:26;;;;;;;14.50;8.13;;;16.60;99.90;;;;;;5049213;28;20448;-67
2021/06/24 04:11:53;;;;;;;17.63;9.00;;;16.60;99.90;;;;;;5050030;28;20455;-67
2021/06/24 04:14:20;;;;;;;9.50;8.43;;;16.60;99.90;;;;;;5049974;28;20531;-68
2021/06/24 04:16:48;;;;;;;9.37;8.57;;;16.60;99.90;;;;;;5048975;28;21056;-67
2021/06/24 04:19:16;;;;;;;10.90;8.50;;;16.70;99.90;;;;;;5049141;28;20953;-70
2021/06/24 04:21:44;;;;;;;10.20;8.90;;;16.70;99.90;;;;;;5049788;28;20505;-66
2021/06/24 04:24:10;;;;;;;10.57;8.73;;;16.70;99.90;;;;;;5049897;28;20476;-67
2021/06/24 04:26:37;;;;;;;12.63;9.50;;;16.80;99.90;;;;;;5049355;28;20526;-66
2021/06/24 04:29:04;;;;;;;11.43;8.80;;;16.80;99.90;;;;;;5049300;28;20472;-67
2021/06/24 04:31:31;;;;;;;10.53;8.90;;;16.90;99.90;;;;;;5049647;28;20454;-67
2021/06/24 04:33:59;;;;;;;9.50;8.47;;;17.00;99.90;;;;;;5049719;28;20448;-68
2021/06/24 04:36:26;;;;;;;10.53;8.40;;;17.10;99.90;;;;;;5049465;28;20475;-67
2021/06/24 04:38:53;;;;;;;14.00;8.90;;;17.10;99.90;;;;;;5049393;28;21326;-72
2021/06/24 04:41:20;;;;;;;14.13;9.77;;;17.20;99.90;;;;;;5049181;28;20480;-71
2021/06/24 04:43:47;;;;;;;10.70;9.50;;;17.20;99.90;;;;;;5048798;28;20917;-70
2021/06/24 04:46:14;;;;;;;9.87;8.83;;;17.30;99.90;;;;;;5048792;28;21004;-69
2021/06/24 04:48:41;;;;;;;10.60;9.50;;;17.40;99.90;;;;;;5049607;28;21041;-69
2021/06/24 04:51:09;;;;;;;9.20;8.30;;;17.50;99.90;;;;;;5048610;28;20538;-70
2021/06/24 04:53:36;;;;;;;9.50;7.83;;;17.50;99.90;;;;;;5049142;28;20436;-68
2021/06/24 04:56:03;;;;;;;9.43;8.20;;;17.50;99.90;;;;;;5049151;28;20447;-70
2021/06/24 04:58:30;;;;;;;8.83;7.93;;;17.40;99.90;;;;;;5048892;28;20499;-68
2021/06/24 05:00:58;;;;;;;8.43;7.43;;;17.40;99.90;;;;;;5044533;28;21093;-70
2021/06/24 05:03:24;;;;;;;9.33;7.73;;;17.40;99.90;;;;;;5045419;28;20451;-70
2021/06/24 05:05:51;;;;;;;9.63;8.63;;;17.50;99.90;;;;;;5047747;28;20475;-72
2021/06/24 05:08:23;;;;;;;8.50;7.57;;;17.60;99.90;;;;;;5042477;28;20487;-70
2021/06/24 05:10:50;;;;;;;8.60;7.20;;;17.80;99.90;;;;;;5041624;28;20444;-71
2021/06/24 05:13:17;;;;;;;9.17;6.80;;;17.90;99.90;;;;;;5050857;28;20531;-70
2021/06/24 05:15:45;;;;;;;7.27;6.57;;;18.20;99.90;;;;;;5052471;28;20451;-71
2021/06/24 05:18:14;;;;;;;6.83;6.23;;;18.40;99.90;;;;;;5052296;28;20533;-71
2021/06/24 05:20:44;;;;;;;9.50;6.10;;;18.50;99.90;;;;;;5051451;28;20531;-70
2021/06/24 05:23:13;;;;;;;8.43;5.43;;;18.70;99.90;;;;;;5050518;28;20523;-71
2021/06/24 05:25:42;;;;;;;6.73;5.13;;;18.90;99.90;;;;;;5051591;28;20530;-71
2021/06/24 05:28:09;;;;;;;5.80;5.00;;;19.10;99.90;;;;;;5050823;28;21045;-71
2021/06/24 05:30:36;;;;;;;5.47;4.97;;;19.30;99.90;;;;;;5051868;28;20448;-70
2021/06/24 05:33:04;;;;;;;6.20;5.13;;;19.40;99.90;;;;;;5052471;28;20498;-71
2021/06/24 05:35:31;;;;;;;5.97;5.37;;;19.50;99.90;;;;;;5052126;28;20479;-71
2021/06/24 05:37:59;;;;;;;8.47;6.20;;;19.50;99.90;;;;;;5051764;28;20523;-69
2021/06/24 05:40:26;;;;;;;8.27;6.60;;;19.50;99.90;;;;;;5051297;28;20444;-70
2021/06/24 05:42:54;;;;;;;7.10;6.30;;;19.30;99.90;;;;;;5052311;28;20538;-70
2021/06/24 05:45:27;;;;;;;5.43;4.93;;;19.20;99.90;;;;;;5052030;28;20480;-69
2021/06/24 05:47:54;;;;;;;6.37;5.07;;;19.10;99.90;;;;;;5051504;28;20475;-71
2021/06/24 05:50:21;;;;;;;6.30;4.70;;;19.00;99.90;;;;;;5050333;28;20468;-70
2021/06/24 05:52:47;;;;;;;5.27;4.77;;;18.90;99.90;;;;;;5051819;28;21032;-70
2021/06/24 05:55:14;;;;;;;7.10;5.33;;;18.80;99.90;;;;;;5052194;28;20448;-70
2021/06/24 05:57:41;;;;;;;6.93;5.50;;;18.90;99.90;;;;;;5051771;28;20983;-69
2021/06/24 06:00:13;;;;;;;6.50;4.90;;;18.90;99.90;;;;;;5050910;28;20456;-70
2021/06/24 06:02:40;;;;;;;5.43;4.40;;;19.00;99.90;;;;;;5052064;28;20428;-69
2021/06/24 06:05:07;;;;;;;5.80;5.20;;;19.00;99.90;;;;;;5051822;28;20484;-70
2021/06/24 06:07:34;;;;;;;5.83;5.23;;;18.90;99.90;;;;;;5051258;28;20531;-70
2021/06/24 06:10:01;;;;;;;7.13;6.27;;;18.90;99.90;;;;;;5050772;28;20452;-69
2021/06/24 06:12:28;;;;;;;7.23;5.80;;;18.90;99.90;;;;;;5050901;28;20480;-71
2021/06/24 06:14:55;;;;;;;6.70;6.00;;;18.90;99.90;;;;;;5051620;28;20441;-69
2021/06/24 06:17:23;;;;;;;6.63;5.80;;;19.10;99.90;;;;;;5051333;28;20551;-71
2021/06/24 06:19:50;;;;;;;6.53;5.93;;;19.20;99.90;;;;;;5050338;28;20899;-70
2021/06/24 06:22:17;;;;;;;7.03;6.17;;;19.20;99.90;;;;;;5051482;28;20454;-70
2021/06/24 06:24:44;;;;;;;10.47;6.70;;;19.20;99.90;;;;;;5051096;28;20571;-69
2021/06/24 06:27:11;;;;;;;10.07;6.60;;;19.20;99.90;;;;;;5050764;28;20475;-68
2021/06/24 06:29:39;;;;;;;13.60;6.90;;;19.10;99.90;;;;;;5050156;28;20558;-70
2021/06/24 06:32:07;;;;;;;10.97;6.83;;;19.00;99.90;;;;;;5050713;28;20451;-69
2021/06/24 06:34:35;;;;;;;9.40;8.47;;;19.00;99.90;;;;;;5050766;28;21120;-70
2021/06/24 06:37:02;;;;;;;7.10;6.30;;;19.00;99.90;;;;;;5050515;28;20440;-70
2021/06/24 06:39:29;;;;;;;10.27;7.40;;;18.90;99.90;;;;;;5050063;28;20479;-70
2021/06/24 06:41:56;;;;;;;8.93;6.77;;;18.90;99.90;;;;;;5050493;28;20930;-70
2021/06/24 06:44:23;;;;;;;7.30;6.50;;;19.10;99.90;;;;;;5050409;28;20490;-70
2021/06/24 06:46:49;;;;;;;7.10;6.37;;;19.10;99.90;;;;;;5050255;28;20539;-70
2021/06/24 06:49:17;;;;;;;7.90;6.73;;;19.30;99.90;;;;;;5050220;28;20488;-69
2021/06/24 06:51:45;;;;;;;7.73;6.93;;;19.50;99.90;;;;;;5050816;28;20460;-71
2021/06/24 06:54:13;;;;;;;7.83;7.03;;;19.70;99.90;;;;;;5050624;28;20530;-69
2021/06/24 06:56:45;;;;;;;6.83;6.23;;;19.70;99.90;;;;;;5050465;28;20471;-69
2021/06/24 06:59:12;;;;;;;7.20;6.50;;;19.60;99.90;;;;;;5049285;28;20946;-70
2021/06/24 07:01:39;;;;;;;6.70;6.00;;;19.40;99.90;;;;;;5050336;28;20980;-69
2021/06/24 07:04:06;;;;;;;6.63;5.60;;;19.50;99.90;;;;;;5050622;28;20553;-70
2021/06/24 07:06:33;;;;;;;6.73;6.13;;;19.50;99.90;;;;;;5050314;28;20460;-70
2021/06/24 07:09:01;;;;;;;5.93;5.30;;;19.70;99.90;;;;;;5050367;28;20464;-70
2021/06/24 07:11:28;;;;;;;8.40;5.97;;;19.80;99.90;;;;;;5050946;28;20440;-69
2021/06/24 07:13:55;;;;;;;10.00;5.13;;;20.00;99.90;;;;;;5051181;28;20484;-70
2021/06/24 07:16:22;;;;;;;5.90;5.30;;;20.00;99.90;;;;;;5050488;28;20528;-71
2021/06/24 07:18:49;;;;;;;5.93;5.33;;;19.90;99.90;;;;;;5050171;28;20529;-70
2021/06/24 07:21:16;;;;;;;8.43;5.90;;;19.70;99.90;;;;;;5049664;28;20527;-70
2021/06/24 07:23:43;;;;;;;5.80;5.20;;;19.50;99.90;;;;;;5049659;28;21036;-69
2021/06/24 07:26:11;;;;;;;6.97;5.50;;;19.50;99.90;;;;;;5049022;28;20568;-71
2021/06/24 07:28:38;;;;;;;5.77;5.07;;;19.40;99.90;;;;;;5049579;28;20537;-69
2021/06/24 07:31:05;;;;;;;5.60;5.10;;;19.40;99.90;;;;;;5049099;28;21377;-70
2021/06/24 07:33:34;;;;;;;5.97;5.23;;;19.40;99.90;;;;;;5049728;28;20483;-71
2021/06/24 07:36:01;;;;;;;10.13;5.43;;;19.40;99.90;;;;;;5049424;28;20440;-69
2021/06/24 07:38:28;;;;;;;6.07;5.43;;;19.40;99.90;;;;;;5049502;28;20560;-72
2021/06/24 07:40:55;;;;;;;5.33;4.77;;;19.50;99.90;;;;;;5048907;28;20513;-70
2021/06/24 07:43:23;;;;;;;6.70;5.57;;;19.50;99.90;;;;;;5049627;28;20534;-69
2021/06/24 07:45:51;;;;;;;5.63;5.00;;;19.50;99.90;;;;;;5049640;28;20563;-69
2021/06/24 07:48:19;;;;;;;6.53;4.60;;;19.60;99.90;;;;;;5049388;28;20561;-70
2021/06/24 07:50:45;;;;;;;5.83;4.77;;;19.70;99.90;;;;;;5048973;28;20526;-70
2021/06/24 07:53:13;;;;;;;5.27;4.77;;;19.80;99.90;;;;;;5049729;28;20480;-71
2021/06/24 07:55:40;;;;;;;5.23;4.60;;;19.80;99.90;;;;;;5050169;28;20454;-69
2021/06/24 07:58:09;;;;;;;6.70;5.00;;;19.90;99.90;;;;;;5049618;28;20478;-71
2021/06/24 08:00:38;;;;;;;5.97;5.37;;;20.10;99.90;;;;;;5048715;28;20903;-70
2021/06/24 08:03:06;;;;;;;6.03;5.43;;;20.40;99.90;;;;;;5049026;28;20444;-69
2021/06/24 08:05:33;;;;;;;6.50;4.57;;;20.70;99.90;;;;;;5049625;28;20214;-70
2021/06/24 08:08:00;;;;;;;6.00;4.67;;;21.00;99.90;;;;;;5049044;28;20585;-70
2021/06/24 08:10:27;;;;;;;5.97;4.50;;;21.40;99.90;;;;;;5048752;28;20495;-70
2021/06/24 08:12:54;;;;;;;4.67;4.10;;;21.80;99.90;;;;;;5049491;28;20550;-70
2021/06/24 08:15:23;;;;;;;5.63;4.60;;;22.20;99.90;;;;;;5049312;28;20989;-71
2021/06/24 08:17:51;;;;;;;5.30;4.77;;;22.20;99.90;;;;;;5048899;28;20471;-70
2021/06/24 08:20:19;;;;;;;5.43;4.40;;;22.20;99.90;;;;;;5048425;28;20454;-67
2021/06/24 08:22:46;;;;;;;6.27;4.40;;;22.10;99.90;;;;;;5048890;28;21034;-68
2021/06/24 08:25:14;;;;;;;6.03;4.40;;;22.10;99.90;;;;;;5049318;28;20562;-68
2021/06/24 08:27:41;;;;;;;5.50;5.00;;;22.10;99.90;;;;;;5049055;28;20563;-67
2021/06/24 08:30:09;;;;;;;5.67;3.90;;;22.30;99.90;;;;;;5048844;28;20957;-68
2021/06/24 08:32:37;;;;;;;4.70;4.20;;;22.50;99.90;;;;;;5049496;28;20949;-67
2021/06/24 08:35:06;;;;;;;5.00;4.50;;;22.90;99.90;;;;;;5049361;28;20447;-69
2021/06/24 08:37:33;;;;;;;5.93;3.80;;;23.10;99.90;;;;;;5053046;28;21100;-68
2021/06/24 08:40:01;;;;;;;5.83;3.67;;;23.40;99.90;;;;;;5052972;28;20454;-68
2021/06/24 08:42:28;;;;;;;4.50;4.10;;;23.60;99.90;;;;;;5053253;28;20539;-69
2021/06/24 08:44:54;;;;;;;5.20;3.93;;;23.90;99.90;;;;;;5053155;28;20538;-69
2021/06/24 08:47:22;;;;;;;5.13;4.17;;;23.60;99.90;;;;;;5052775;28;20543;-71
2021/06/24 08:49:52;;;;;;;6.00;4.43;;;23.20;99.90;;;;;;5052125;28;21381;-70
2021/06/24 08:52:20;;;;;;;4.30;3.90;;;23.10;99.90;;;;;;5053322;28;20428;-70
2021/06/24 08:54:47;;;;;;;5.20;3.23;;;22.80;99.90;;;;;;5052760;28;20950;-70
2021/06/24 08:57:15;;;;;;;5.03;4.30;;;22.80;99.90;;;;;;5052667;28;20866;-71
2021/06/24 08:59:42;;;;;;;5.23;4.53;;;22.90;99.90;;;;;;5051890;28;20953;-70
2021/06/24 09:02:12;;;;;;;6.03;4.00;;;23.10;99.90;;;;;;5053042;28;20486;-70
2021/06/24 09:04:40;;;;;;;4.00;3.40;;;23.30;99.90;;;;;;5052993;28;20467;-70
2021/06/24 09:07:08;;;;;;;5.00;3.60;;;23.10;99.90;;;;;;5052309;28;20889;-70
2021/06/24 09:09:40;;;;;;;5.23;4.40;;;23.50;99.90;;;;;;5052141;28;20444;-70
2021/06/24 09:12:09;;;;;;;6.50;4.97;;;23.90;99.90;;;;;;5053039;28;20898;-71
2021/06/24 09:14:40;;;;;;;3.97;3.43;;;24.40;99.90;;;;;;5053003;28;20533;-70
2021/06/24 09:17:08;;;;;;;4.60;3.80;;;25.10;99.90;;;;;;5052586;28;20543;-70
2021/06/24 09:19:38;;;;;;;4.70;4.03;;;25.40;99.90;;;;;;5052195;28;20444;-70
2021/06/24 09:22:08;;;;;;;4.53;3.97;;;25.30;99.90;;;;;;5052678;28;20812;-70
2021/06/24 09:24:38;;;;;;;6.23;4.40;;;25.30;99.90;;;;;;5052475;28;20480;-71
2021/06/24 09:27:07;;;;;;;5.67;3.90;;;25.30;99.90;;;;;;5051864;28;20850;-70
2021/06/24 09:29:34;;;;;;;4.67;4.03;;;25.10;99.90;;;;;;5051862;28;20526;-69
2021/06/24 09:32:03;;;;;;;4.20;3.23;;;25.20;99.90;;;;;;5052355;28;20498;-69
2021/06/24 09:34:30;;;;;;;5.30;3.90;;;25.30;99.90;;;;;;5052392;28;20502;-69
2021/06/24 09:37:01;;;;;;;3.90;3.47;;;25.10;99.90;;;;;;5051844;28;20522;-69
2021/06/24 09:39:32;;;;;;;5.23;3.60;;;24.40;99.90;;;;;;5051239;28;20455;-70
2021/06/24 09:42:03;;;;;;;4.30;3.13;;;24.00;99.90;;;;;;5052181;28;20956;-69
2021/06/24 09:44:31;;;;;;;4.60;3.00;;;23.70;99.90;;;;;;5052126;28;20502;-69
2021/06/24 09:46:59;;;;;;;4.30;3.20;;;23.60;99.90;;;;;;5051311;28;20499;-68
2021/06/24 09:49:31;;;;;;;4.77;3.50;;;23.50;99.90;;;;;;5050903;28;21015;-69
2021/06/24 09:52:00;;;;;;;4.13;3.73;;;23.30;99.90;;;;;;5051889;28;20681;-69
2021/06/24 09:54:35;;;;;;;6.77;4.10;;;23.20;99.90;;;;;;5052666;28;20455;-69
2021/06/24 09:57:05;;;;;;;4.63;3.57;;;23.10;99.90;;;;;;5051881;28;20495;-70
2021/06/24 09:59:38;;;;;;;4.83;4.30;;;23.10;99.90;;;;;;5051504;28;20849;-71
2021/06/24 10:02:13;;;;;;;5.30;4.40;;;23.00;99.90;;;;;;5052141;28;20919;-70
2021/06/24 10:04:42;;;;;;;5.00;3.57;;;23.20;99.90;;;;;;5051294;28;21141;-70
2021/06/24 10:07:11;;;;;;;3.20;2.83;;;23.60;99.90;;;;;;5051081;28;20602;-70
2021/06/24 10:09:40;;;;;;;4.90;3.30;;;24.80;99.90;;;;;;5050583;28;21166;-69
2021/06/24 10:12:11;;;;;;;3.87;3.47;;;25.80;99.90;;;;;;5051330;28;20456;-69
2021/06/24 10:14:40;;;;;;;6.70;3.23;;;26.60;99.90;;;;;;5051570;28;20511;-70
2021/06/24 10:17:08;;;;;;;3.60;2.90;;;27.10;99.90;;;;;;5050750;28;20460;-71
2021/06/24 10:19:36;;;;;;;3.20;2.90;;;27.60;99.90;;;;;;5050586;28;20448;-70
2021/06/24 10:22:07;;;;;;;7.27;3.23;;;28.60;99.90;;;;;;5050933;28;20538;-70
2021/06/24 10:24:37;;;;;;;3.70;3.30;;;29.10;99.90;;;;;;5051044;28;21053;-71
2021/06/24 10:27:12;;;;;;;4.37;3.57;;;29.50;99.90;;;;;;5050988;28;20506;-70
2021/06/24 10:29:44;;;;;;;4.20;3.20;;;29.80;99.90;;;;;;5050125;28;20452;-71
2021/06/24 10:32:32;;;;;;;4.53;3.30;;;29.20;99.90;;;;;;5051379;28;20487;-69
2021/06/24 10:35:00;;;;;;;3.87;3.07;;;28.40;99.90;;;;;;5050826;28;20518;-70
2021/06/24 10:37:29;;;;;;;5.43;3.23;;;28.10;99.90;;;;;;5050288;28;20539;-69
2021/06/24 10:39:58;;;;;;;7.03;3.53;;;27.50;99.90;;;;;;5049645;28;20446;-70
2021/06/24 10:42:28;;;;;;;7.40;3.33;;;27.20;99.90;;;;;;5050904;28;20550;-69
2021/06/24 10:44:58;;;;;;;5.30;3.13;;;27.00;99.90;;;;;;5050602;28;20543;-69
2021/06/24 10:47:33;;;;;;;3.50;2.70;;;27.00;99.90;;;;;;5050234;28;20586;-70
2021/06/24 10:50:36;;;;;;;5.70;3.13;;;27.10;99.90;;;;;;5049807;28;20585;-70
2021/06/24 10:53:52;;;;;;;4.37;3.13;;;27.50;99.90;;;;;;5050836;28;20458;-70
2021/06/24 10:56:43;;;;;;;3.40;2.60;;;28.40;99.90;;;;;;5037084;28;20521;-70
2021/06/24 10:59:41;;;;;;;3.90;3.07;;;28.40;99.90;;;;;;5049697;28;20480;-70
2021/06/24 11:02:14;;;;;;;3.30;2.47;;;28.60;99.90;;;;;;4987574;28;20866;-70
2021/06/24 11:04:44;;;;;;;4.27;2.30;;;28.50;99.90;;;;;;5038775;28;20535;-70
2021/06/24 11:07:26;;;;;;;2.90;2.17;;;28.30;99.90;;;;;;5049505;28;20533;-70
2021/06/24 11:10:31;;;;;;;4.80;2.50;;;27.90;99.90;;;;;;5048560;28;20904;-70
2021/06/24 11:13:09;;;;;;;3.00;2.10;;;27.70;99.90;;;;;;5050339;28;20523;-70
2021/06/24 11:15:51;;;;;;;3.50;2.20;;;28.20;99.90;;;;;;5050244;28;20470;-71
2021/06/24 11:18:55;;;;;;;3.73;1.77;;;28.50;99.80;;;;;;5049678;28;20517;-69
2021/06/24 11:21:46;;;;;;;2.60;1.70;;;28.50;99.90;;;;;;5049641;28;20448;-70
2021/06/24 11:24:25;;;;;;;2.63;1.30;;;28.50;99.90;;;;;;5049777;28;20440;-70
2021/06/24 11:26:54;;;;;;;2.70;1.43;;;29.10;96.30;;;;;;5049512;28;20944;-68
2021/06/24 11:29:41;;;;;;;4.03;1.77;;;29.00;97.90;;;;;;5048865;28;20957;-70
2021/06/24 11:32:16;;;;;;;3.20;1.60;;;28.90;99.90;;;;;;5049940;28;20451;-69
2021/06/24 11:34:53;;;;;;;2.57;1.53;;;29.20;97.50;;;;;;5050026;28;20452;-70
2021/06/24 11:37:23;;;;;;;2.73;1.73;;;29.60;96.10;;;;;;5049210;28;21024;-69
2021/06/24 11:39:53;;;;;;;2.40;1.57;;;30.10;94.90;;;;;;5046137;28;20448;-70
2021/06/24 11:42:23;;;;;;;2.73;1.50;;;30.60;94.60;;;;;;5039814;28;20440;-70
2021/06/24 11:44:52;;;;;;;2.50;1.67;;;30.20;94.30;;;;;;5039263;28;20443;-70
2021/06/24 11:47:21;;;;;;;2.63;1.50;;;30.40;92.90;;;;;;5037156;28;21066;-70
2021/06/24 12:04:02;;;;;;;2.70;1.93;;;31.00;95.40;;;;;;5028568;28;20432;-70
2021/06/24 12:06:48;;;;;;;3.70;1.73;;;31.00;91.80;;;;;;5031602;28;20488;-72
2021/06/24 12:09:20;;;;;;;4.30;1.70;;;30.20;95.60;;;;;;5027148;28;20457;-70
2021/06/24 12:11:48;;;;;;;3.10;2.10;;;29.30;94.00;;;;;;5032425;28;20476;-70
2021/06/24 12:14:19;;;;;;;3.60;2.70;;;28.50;94.30;;;;;;5033495;28;20966;-71
2021/06/24 12:17:06;;;;;;;3.03;2.70;;;27.80;96.50;;;;;;5034279;28;20994;-73
2021/06/24 12:19:43;;;;;;;2.63;1.97;;;27.00;97.30;;;;;;5034066;28;20978;-71
2021/06/24 12:22:13;;;;;;;3.07;2.03;;;26.20;99.90;;;;;;5033648;28;21156;-70
2021/06/24 12:24:40;;;;;;;3.27;1.97;;;25.80;99.90;;;;;;5033259;28;20826;-69
2021/06/24 12:27:22;;;;;;;3.10;2.10;;;25.60;99.90;;;;;;5031934;28;20493;-69
2021/06/24 12:29:55;;;;;;;3.13;1.97;;;25.60;99.90;;;;;;5032866;28;20539;-72
2021/06/24 12:32:22;;;;;;;2.97;2.07;;;25.30;99.90;;;;;;5033103;28;20464;-71
2021/06/24 12:34:56;;;;;;;2.80;1.73;;;25.00;99.90;;;;;;5033287;28;20444;-69
2021/06/24 12:37:40;;;;;;;3.00;1.70;;;24.80;99.90;;;;;;5041966;28;20532;-70
2021/06/24 12:40:11;;;;;;;3.60;2.00;;;24.60;99.90;;;;;;5036584;28;20452;-70
2021/06/24 12:42:47;;;;;;;3.23;2.10;;;25.00;99.90;;;;;;5046793;28;20830;-71
2021/06/24 12:45:17;;;;;;;3.60;1.83;;;26.00;99.90;;;;;;5043464;28;20527;-70
2021/06/24 12:47:49;;;;;;;3.50;1.90;;;27.20;99.50;;;;;;5038610;28;20481;-70
2021/06/24 12:50:22;;;;;;;2.40;1.53;;;27.80;97.50;;;;;;5039587;28;20439;-70
2021/06/24 12:52:51;;;;;;;2.90;1.50;;;28.30;96.30;;;;;;5042350;28;20444;-70
2021/06/24 12:55:43;;;;;;;2.70;1.43;;;28.00;94.80;;;;;;5040982;28;20473;-69
2021/06/24 12:58:15;;;;;;;2.97;1.50;;;28.10;96.00;;;;;;5037404;28;20558;-73
2021/06/24 13:00:51;;;;;;;2.97;1.50;;;28.00;96.30;;;;;;5041480;28;20443;-70
2021/06/24 13:03:32;;;;;;;2.70;1.80;;;28.50;96.90;;;;;;5040185;28;20440;-70
2021/06/24 13:06:12;;;;;;;2.87;1.50;;;28.60;94.40;;;;;;5040647;28;20468;-69
2021/06/24 13:08:49;;;;;;;3.07;1.10;;;28.50;96.90;;;;;;5055540;28;20575;-70
2021/06/24 13:11:19;;;;;;;3.30;1.40;;;28.30;96.60;;;;;;5062355;28;20526;-70